Terminal Aerodrome Forecast
Issued by NWS

Home | Current Version | Previous Version | Text Only | Print | Product List | Glossary On
Versions: 1 2 3 4 5 6 7 8 9 10 11 12 13 14 15
000
FTUS46 KLOX 012340
TAFPMD
TAF
KPMD 012340Z 0200/0224 24015G20KT P6SM BKN250
     FM020300 24011KT P6SM BKN250
     FM021000 21007KT P6SM SCT250
     FM021800 23010KT P6SM SCT250
     FM022000 24013KT P6SM SCT250
     FM022200 23016G22KT P6SM SCT250=

USA.gov is the U.S. government's official web portal to all federal, state and local government web resources and services.